sensor_id;sensor_type;location;lat;lon;timestamp;P1;durP1;ratioP1;P2;durP2;ratioP2
13483;SDS011;6814;57.786;12.080;2023-03-02T00:01:37;1.87;;;1.20;;
13483;SDS011;6814;57.786;12.080;2023-03-02T00:04:04;3.10;;;1.50;;
13483;SDS011;6814;57.786;12.080;2023-03-02T00:06:32;1.03;;;0.93;;
13483;SDS011;6814;57.786;12.080;2023-03-02T00:08:59;2.10;;;1.20;;
13483;SDS011;6814;57.786;12.080;2023-03-02T00:11:26;4.03;;;1.20;;
13483;SDS011;6814;57.786;12.080;2023-03-02T00:13:53;2.27;;;0.93;;
13483;SDS011;6814;57.786;12.080;2023-03-02T00:16:20;1.37;;;1.07;;
13483;SDS011;6814;57.786;12.080;2023-03-02T00:18:47;1.40;;;1.00;;
13483;SDS011;6814;57.786;12.080;2023-03-02T00:21:13;1.30;;;0.90;;
13483;SDS011;6814;57.786;12.080;2023-03-02T00:23:40;1.60;;;1.10;;
13483;SDS011;6814;57.786;12.080;2023-03-02T00:26:06;2.47;;;1.30;;
13483;SDS011;6814;57.786;12.080;2023-03-02T00:28:33;1.43;;;1.17;;
13483;SDS011;6814;57.786;12.080;2023-03-02T00:31:02;4.13;;;1.60;;
13483;SDS011;6814;57.786;12.080;2023-03-02T00:33:30;1.67;;;1.47;;
13483;SDS011;6814;57.786;12.080;2023-03-02T00:35:57;1.77;;;1.50;;
13483;SDS011;6814;57.786;12.080;2023-03-02T00:38:23;1.40;;;1.30;;
13483;SDS011;6814;57.786;12.080;2023-03-02T00:40:51;1.53;;;1.10;;
13483;SDS011;6814;57.786;12.080;2023-03-02T00:43:19;1.43;;;1.20;;
13483;SDS011;6814;57.786;12.080;2023-03-02T00:45:46;1.30;;;1.10;;
13483;SDS011;6814;57.786;12.080;2023-03-02T00:48:13;0.97;;;0.97;;
13483;SDS011;6814;57.786;12.080;2023-03-02T00:50:41;1.30;;;0.80;;
13483;SDS011;6814;57.786;12.080;2023-03-02T00:53:07;1.60;;;1.10;;
13483;SDS011;6814;57.786;12.080;2023-03-02T00:55:34;0.90;;;0.80;;
13483;SDS011;6814;57.786;12.080;2023-03-02T00:58:01;0.80;;;0.80;;
13483;SDS011;6814;57.786;12.080;2023-03-02T01:00:27;2.17;;;1.20;;
13483;SDS011;6814;57.786;12.080;2023-03-02T01:02:54;1.03;;;0.90;;
13483;SDS011;6814;57.786;12.080;2023-03-02T01:05:20;0.77;;;0.77;;
13483;SDS011;6814;57.786;12.080;2023-03-02T01:07:48;1.00;;;0.80;;
13483;SDS011;6814;57.786;12.080;2023-03-02T01:10:14;1.87;;;0.80;;
13483;SDS011;6814;57.786;12.080;2023-03-02T01:12:41;1.30;;;1.00;;
13483;SDS011;6814;57.786;12.080;2023-03-02T01:15:08;0.70;;;0.70;;
13483;SDS011;6814;57.786;12.080;2023-03-02T01:17:35;0.80;;;0.80;;
13483;SDS011;6814;57.786;12.080;2023-03-02T01:20:01;0.77;;;0.70;;
13483;SDS011;6814;57.786;12.080;2023-03-02T01:22:28;1.63;;;0.83;;
13483;SDS011;6814;57.786;12.080;2023-03-02T01:24:56;1.50;;;0.60;;
13483;SDS011;6814;57.786;12.080;2023-03-02T01:27:23;0.60;;;0.60;;
13483;SDS011;6814;57.786;12.080;2023-03-02T01:29:49;1.37;;;0.80;;
13483;SDS011;6814;57.786;12.080;2023-03-02T01:32:16;1.00;;;0.90;;
13483;SDS011;6814;57.786;12.080;2023-03-02T01:34:42;1.00;;;0.80;;
13483;SDS011;6814;57.786;12.080;2023-03-02T01:37:08;1.97;;;0.80;;
13483;SDS011;6814;57.786;12.080;2023-03-02T01:39:35;0.80;;;0.60;;
13483;SDS011;6814;57.786;12.080;2023-03-02T01:42:03;0.80;;;0.80;;
13483;SDS011;6814;57.786;12.080;2023-03-02T01:44:33;0.93;;;0.93;;
13483;SDS011;6814;57.786;12.080;2023-03-02T01:47:00;0.90;;;0.80;;
13483;SDS011;6814;57.786;12.080;2023-03-02T01:49:27;0.97;;;0.90;;
13483;SDS011;6814;57.786;12.080;2023-03-02T01:51:54;1.20;;;0.90;;
13483;SDS011;6814;57.786;12.080;2023-03-02T01:54:20;1.37;;;0.80;;
13483;SDS011;6814;57.786;12.080;2023-03-02T01:56:48;0.70;;;0.70;;
13483;SDS011;6814;57.786;12.080;2023-03-02T01:59:17;0.60;;;0.60;;
13483;SDS011;6814;57.786;12.080;2023-03-02T02:01:44;0.80;;;0.77;;
13483;SDS011;6814;57.786;12.080;2023-03-02T02:04:14;0.93;;;0.60;;
13483;SDS011;6814;57.786;12.080;2023-03-02T02:06:42;1.40;;;0.83;;
13483;SDS011;6814;57.786;12.080;2023-03-02T02:09:10;0.80;;;0.80;;
13483;SDS011;6814;57.786;12.080;2023-03-02T02:11:38;2.17;;;1.00;;
13483;SDS011;6814;57.786;12.080;2023-03-02T02:14:04;0.87;;;0.80;;
13483;SDS011;6814;57.786;12.080;2023-03-02T02:16:33;2.07;;;0.90;;
13483;SDS011;6814;57.786;12.080;2023-03-02T02:18:59;0.70;;;0.70;;
13483;SDS011;6814;57.786;12.080;2023-03-02T02:21:26;0.80;;;0.80;;
13483;SDS011;6814;57.786;12.080;2023-03-02T02:23:55;0.77;;;0.70;;
13483;SDS011;6814;57.786;12.080;2023-03-02T02:26:26;1.03;;;0.90;;
13483;SDS011;6814;57.786;12.080;2023-03-02T02:28:54;1.10;;;0.80;;
13483;SDS011;6814;57.786;12.080;2023-03-02T02:31:24;2.13;;;0.90;;
13483;SDS011;6814;57.786;12.080;2023-03-02T02:33:52;0.70;;;0.70;;
13483;SDS011;6814;57.786;12.080;2023-03-02T02:36:21;1.40;;;0.80;;
13483;SDS011;6814;57.786;12.080;2023-03-02T02:38:49;1.10;;;0.80;;
13483;SDS011;6814;57.786;12.080;2023-03-02T02:41:17;0.50;;;0.50;;
13483;SDS011;6814;57.786;12.080;2023-03-02T02:43:45;0.63;;;0.63;;
13483;SDS011;6814;57.786;12.080;2023-03-02T02:46:12;0.63;;;0.63;;
13483;SDS011;6814;57.786;12.080;2023-03-02T02:48:38;1.00;;;0.70;;
13483;SDS011;6814;57.786;12.080;2023-03-02T02:51:05;0.97;;;0.80;;
13483;SDS011;6814;57.786;12.080;2023-03-02T02:53:34;0.73;;;0.53;;
13483;SDS011;6814;57.786;12.080;2023-03-02T02:56:03;1.70;;;0.80;;
13483;SDS011;6814;57.786;12.080;2023-03-02T02:58:31;0.60;;;0.60;;
13483;SDS011;6814;57.786;12.080;2023-03-02T03:01:00;1.40;;;0.60;;
13483;SDS011;6814;57.786;12.080;2023-03-02T03:03:27;0.80;;;0.63;;
13483;SDS011;6814;57.786;12.080;2023-03-02T03:05:55;1.03;;;0.50;;
13483;SDS011;6814;57.786;12.080;2023-03-02T03:08:41;1.00;;;0.67;;
13483;SDS011;6814;57.786;12.080;2023-03-02T03:11:14;1.17;;;0.70;;
13483;SDS011;6814;57.786;12.080;2023-03-02T03:13:43;0.47;;;0.43;;
13483;SDS011;6814;57.786;12.080;2023-03-02T03:16:13;0.50;;;0.50;;
13483;SDS011;6814;57.786;12.080;2023-03-02T03:18:41;0.63;;;0.40;;
13483;SDS011;6814;57.786;12.080;2023-03-02T03:21:07;0.73;;;0.67;;
13483;SDS011;6814;57.786;12.080;2023-03-02T03:23:34;0.40;;;0.40;;
13483;SDS011;6814;57.786;12.080;2023-03-02T03:26:02;1.77;;;0.60;;
13483;SDS011;6814;57.786;12.080;2023-03-02T03:28:28;0.50;;;0.50;;
13483;SDS011;6814;57.786;12.080;2023-03-02T03:30:55;1.27;;;0.70;;
13483;SDS011;6814;57.786;12.080;2023-03-02T03:33:23;0.53;;;0.53;;
13483;SDS011;6814;57.786;12.080;2023-03-02T03:35:49;1.03;;;0.70;;
13483;SDS011;6814;57.786;12.080;2023-03-02T03:38:16;1.20;;;0.40;;
13483;SDS011;6814;57.786;12.080;2023-03-02T03:40:42;0.40;;;0.30;;
13483;SDS011;6814;57.786;12.080;2023-03-02T03:43:09;1.03;;;0.50;;
13483;SDS011;6814;57.786;12.080;2023-03-02T03:45:36;0.40;;;0.40;;
13483;SDS011;6814;57.786;12.080;2023-03-02T03:48:03;1.47;;;0.60;;
13483;SDS011;6814;57.786;12.080;2023-03-02T03:50:30;0.57;;;0.53;;
13483;SDS011;6814;57.786;12.080;2023-03-02T03:52:57;0.90;;;0.47;;
13483;SDS011;6814;57.786;12.080;2023-03-02T03:55:23;0.83;;;0.40;;
13483;SDS011;6814;57.786;12.080;2023-03-02T03:57:52;0.83;;;0.70;;
13483;SDS011;6814;57.786;12.080;2023-03-02T04:00:19;0.50;;;0.50;;
13483;SDS011;6814;57.786;12.080;2023-03-02T04:02:45;2.33;;;0.60;;
13483;SDS011;6814;57.786;12.080;2023-03-02T04:05:12;0.53;;;0.53;;
13483;SDS011;6814;57.786;12.080;2023-03-02T04:07:40;0.70;;;0.63;;
13483;SDS011;6814;57.786;12.080;2023-03-02T04:10:07;1.37;;;0.50;;
13483;SDS011;6814;57.786;12.080;2023-03-02T04:12:35;1.23;;;0.50;;
13483;SDS011;6814;57.786;12.080;2023-03-02T04:15:01;1.17;;;0.67;;
13483;SDS011;6814;57.786;12.080;2023-03-02T04:17:28;0.50;;;0.43;;
13483;SDS011;6814;57.786;12.080;2023-03-02T04:19:54;0.60;;;0.60;;
13483;SDS011;6814;57.786;12.080;2023-03-02T04:22:21;0.93;;;0.60;;
13483;SDS011;6814;57.786;12.080;2023-03-02T04:24:48;0.80;;;0.60;;
13483;SDS011;6814;57.786;12.080;2023-03-02T04:27:15;0.40;;;0.40;;
13483;SDS011;6814;57.786;12.080;2023-03-02T04:29:41;1.13;;;0.50;;
13483;SDS011;6814;57.786;12.080;2023-03-02T04:32:09;3.80;;;0.90;;
13483;SDS011;6814;57.786;12.080;2023-03-02T04:34:35;0.60;;;0.40;;
13483;SDS011;6814;57.786;12.080;2023-03-02T04:37:02;1.47;;;0.90;;
13483;SDS011;6814;57.786;12.080;2023-03-02T04:39:28;1.47;;;0.80;;
13483;SDS011;6814;57.786;12.080;2023-03-02T04:41:56;0.57;;;0.57;;
13483;SDS011;6814;57.786;12.080;2023-03-02T04:44:23;0.40;;;0.40;;
13483;SDS011;6814;57.786;12.080;2023-03-02T04:46:49;1.03;;;0.80;;
13483;SDS011;6814;57.786;12.080;2023-03-02T04:49:16;0.40;;;0.40;;
13483;SDS011;6814;57.786;12.080;2023-03-02T04:51:44;1.13;;;0.40;;
13483;SDS011;6814;57.786;12.080;2023-03-02T04:54:12;0.37;;;0.33;;
13483;SDS011;6814;57.786;12.080;2023-03-02T04:56:39;1.03;;;0.40;;
13483;SDS011;6814;57.786;12.080;2023-03-02T04:59:07;1.00;;;0.30;;
13483;SDS011;6814;57.786;12.080;2023-03-02T05:01:33;0.50;;;0.50;;
13483;SDS011;6814;57.786;12.080;2023-03-02T05:04:00;0.63;;;0.40;;
13483;SDS011;6814;57.786;12.080;2023-03-02T05:06:26;0.53;;;0.40;;
13483;SDS011;6814;57.786;12.080;2023-03-02T05:08:52;1.20;;;0.60;;
13483;SDS011;6814;57.786;12.080;2023-03-02T05:11:19;0.70;;;0.40;;
13483;SDS011;6814;57.786;12.080;2023-03-02T05:13:50;1.73;;;1.40;;
13483;SDS011;6814;57.786;12.080;2023-03-02T05:16:19;0.47;;;0.47;;
13483;SDS011;6814;57.786;12.080;2023-03-02T05:18:46;0.50;;;0.43;;
13483;SDS011;6814;57.786;12.080;2023-03-02T05:21:13;1.10;;;0.40;;
13483;SDS011;6814;57.786;12.080;2023-03-02T05:23:40;2.40;;;0.70;;
13483;SDS011;6814;57.786;12.080;2023-03-02T05:26:06;0.60;;;0.43;;
13483;SDS011;6814;57.786;12.080;2023-03-02T05:28:33;0.40;;;0.40;;
13483;SDS011;6814;57.786;12.080;2023-03-02T05:30:59;0.60;;;0.40;;
13483;SDS011;6814;57.786;12.080;2023-03-02T05:33:27;1.13;;;0.40;;
13483;SDS011;6814;57.786;12.080;2023-03-02T05:35:54;0.30;;;0.30;;
13483;SDS011;6814;57.786;12.080;2023-03-02T05:38:21;0.60;;;0.40;;
13483;SDS011;6814;57.786;12.080;2023-03-02T05:40:47;0.50;;;0.40;;
13483;SDS011;6814;57.786;12.080;2023-03-02T05:43:15;0.40;;;0.40;;
13483;SDS011;6814;57.786;12.080;2023-03-02T05:45:41;0.20;;;0.20;;
13483;SDS011;6814;57.786;12.080;2023-03-02T05:48:09;1.80;;;0.60;;
13483;SDS011;6814;57.786;12.080;2023-03-02T05:50:38;0.90;;;0.50;;
13483;SDS011;6814;57.786;12.080;2023-03-02T05:53:04;0.47;;;0.40;;
13483;SDS011;6814;57.786;12.080;2023-03-02T05:55:42;0.43;;;0.40;;
13483;SDS011;6814;57.786;12.080;2023-03-02T05:58:10;0.80;;;0.60;;
13483;SDS011;6814;57.786;12.080;2023-03-02T06:00:38;0.80;;;0.53;;
13483;SDS011;6814;57.786;12.080;2023-03-02T06:03:05;0.57;;;0.33;;
13483;SDS011;6814;57.786;12.080;2023-03-02T06:05:31;0.50;;;0.30;;
13483;SDS011;6814;57.786;12.080;2023-03-02T06:07:59;0.97;;;0.43;;
13483;SDS011;6814;57.786;12.080;2023-03-02T06:10:25;0.37;;;0.30;;
13483;SDS011;6814;57.786;12.080;2023-03-02T06:12:52;1.33;;;0.60;;
13483;SDS011;6814;57.786;12.080;2023-03-02T06:15:19;0.50;;;0.30;;
13483;SDS011;6814;57.786;12.080;2023-03-02T06:17:45;0.80;;;0.50;;
13483;SDS011;6814;57.786;12.080;2023-03-02T06:20:12;0.70;;;0.67;;
13483;SDS011;6814;57.786;12.080;2023-03-02T06:22:39;0.70;;;0.67;;
13483;SDS011;6814;57.786;12.080;2023-03-02T06:25:09;0.70;;;0.60;;
13483;SDS011;6814;57.786;12.080;2023-03-02T06:27:36;0.50;;;0.50;;
13483;SDS011;6814;57.786;12.080;2023-03-02T06:30:03;2.30;;;0.63;;
13483;SDS011;6814;57.786;12.080;2023-03-02T06:32:29;0.60;;;0.53;;
13483;SDS011;6814;57.786;12.080;2023-03-02T06:34:58;3.23;;;0.70;;
13483;SDS011;6814;57.786;12.080;2023-03-02T06:37:24;1.27;;;0.50;;
13483;SDS011;6814;57.786;12.080;2023-03-02T06:39:52;1.43;;;0.67;;
13483;SDS011;6814;57.786;12.080;2023-03-02T06:42:20;0.40;;;0.40;;
13483;SDS011;6814;57.786;12.080;2023-03-02T06:44:46;0.50;;;0.50;;
13483;SDS011;6814;57.786;12.080;2023-03-02T06:47:13;0.50;;;0.50;;
13483;SDS011;6814;57.786;12.080;2023-03-02T06:49:40;0.50;;;0.30;;
13483;SDS011;6814;57.786;12.080;2023-03-02T06:52:06;0.80;;;0.53;;
13483;SDS011;6814;57.786;12.080;2023-03-02T06:54:34;1.80;;;0.70;;
13483;SDS011;6814;57.786;12.080;2023-03-02T06:57:01;1.37;;;0.47;;
13483;SDS011;6814;57.786;12.080;2023-03-02T06:59:29;0.60;;;0.60;;
13483;SDS011;6814;57.786;12.080;2023-03-02T07:01:56;1.67;;;0.50;;
13483;SDS011;6814;57.786;12.080;2023-03-02T07:04:22;2.10;;;0.40;;
13483;SDS011;6814;57.786;12.080;2023-03-02T07:06:48;0.40;;;0.40;;
13483;SDS011;6814;57.786;12.080;2023-03-02T07:09:15;0.90;;;0.87;;
13483;SDS011;6814;57.786;12.080;2023-03-02T07:11:41;1.17;;;0.30;;
13483;SDS011;6814;57.786;12.080;2023-03-02T07:14:08;1.77;;;0.80;;
13483;SDS011;6814;57.786;12.080;2023-03-02T07:16:36;0.43;;;0.43;;
13483;SDS011;6814;57.786;12.080;2023-03-02T07:19:02;1.10;;;0.50;;
13483;SDS011;6814;57.786;12.080;2023-03-02T07:21:28;0.30;;;0.30;;
13483;SDS011;6814;57.786;12.080;2023-03-02T07:23:55;0.43;;;0.37;;
13483;SDS011;6814;57.786;12.080;2023-03-02T07:26:21;0.60;;;0.60;;
13483;SDS011;6814;57.786;12.080;2023-03-02T07:28:48;0.50;;;0.30;;
13483;SDS011;6814;57.786;12.080;2023-03-02T07:31:14;0.43;;;0.40;;
13483;SDS011;6814;57.786;12.080;2023-03-02T07:33:42;0.30;;;0.30;;
13483;SDS011;6814;57.786;12.080;2023-03-02T07:36:09;0.57;;;0.30;;
13483;SDS011;6814;57.786;12.080;2023-03-02T07:38:35;0.50;;;0.27;;
13483;SDS011;6814;57.786;12.080;2023-03-02T07:41:04;0.40;;;0.40;;
13483;SDS011;6814;57.786;12.080;2023-03-02T07:43:31;1.17;;;0.50;;
13483;SDS011;6814;57.786;12.080;2023-03-02T07:45:59;1.13;;;0.40;;
13483;SDS011;6814;57.786;12.080;2023-03-02T07:48:26;0.57;;;0.30;;
13483;SDS011;6814;57.786;12.080;2023-03-02T07:50:57;0.33;;;0.30;;
13483;SDS011;6814;57.786;12.080;2023-03-02T07:53:23;0.43;;;0.23;;
13483;SDS011;6814;57.786;12.080;2023-03-02T07:55:50;1.13;;;0.57;;
13483;SDS011;6814;57.786;12.080;2023-03-02T07:58:16;1.57;;;0.90;;
13483;SDS011;6814;57.786;12.080;2023-03-02T08:00:43;1.37;;;0.77;;
13483;SDS011;6814;57.786;12.080;2023-03-02T08:03:09;1.40;;;1.20;;
13483;SDS011;6814;57.786;12.080;2023-03-02T08:05:36;1.43;;;1.10;;
13483;SDS011;6814;57.786;12.080;2023-03-02T08:08:03;1.37;;;0.87;;
13483;SDS011;6814;57.786;12.080;2023-03-02T08:10:32;0.60;;;0.60;;
13483;SDS011;6814;57.786;12.080;2023-03-02T08:12:58;1.53;;;0.83;;
13483;SDS011;6814;57.786;12.080;2023-03-02T08:15:25;5.73;;;0.80;;
13483;SDS011;6814;57.786;12.080;2023-03-02T08:17:51;8.00;;;1.00;;
13483;SDS011;6814;57.786;12.080;2023-03-02T08:20:18;1.80;;;0.90;;
13483;SDS011;6814;57.786;12.080;2023-03-02T08:22:44;0.87;;;0.70;;
13483;SDS011;6814;57.786;12.080;2023-03-02T08:25:12;4.43;;;0.80;;
13483;SDS011;6814;57.786;12.080;2023-03-02T08:27:39;2.40;;;1.00;;
13483;SDS011;6814;57.786;12.080;2023-03-02T08:30:06;4.17;;;1.17;;
13483;SDS011;6814;57.786;12.080;2023-03-02T08:32:34;1.37;;;1.10;;
13483;SDS011;6814;57.786;12.080;2023-03-02T08:35:01;2.70;;;0.70;;
13483;SDS011;6814;57.786;12.080;2023-03-02T08:37:27;1.53;;;0.50;;
13483;SDS011;6814;57.786;12.080;2023-03-02T08:39:54;1.30;;;0.67;;
13483;SDS011;6814;57.786;12.080;2023-03-02T08:42:22;0.90;;;0.53;;
13483;SDS011;6814;57.786;12.080;2023-03-02T08:44:48;0.83;;;0.70;;
13483;SDS011;6814;57.786;12.080;2023-03-02T08:47:15;2.10;;;0.80;;
13483;SDS011;6814;57.786;12.080;2023-03-02T08:49:41;0.50;;;0.50;;
13483;SDS011;6814;57.786;12.080;2023-03-02T08:52:08;0.93;;;0.50;;
13483;SDS011;6814;57.786;12.080;2023-03-02T08:54:34;0.60;;;0.50;;
13483;SDS011;6814;57.786;12.080;2023-03-02T08:57:04;1.43;;;0.50;;
13483;SDS011;6814;57.786;12.080;2023-03-02T08:59:36;1.30;;;0.60;;
13483;SDS011;6814;57.786;12.080;2023-03-02T09:02:02;0.80;;;0.80;;
13483;SDS011;6814;57.786;12.080;2023-03-02T09:04:29;2.90;;;1.00;;
13483;SDS011;6814;57.786;12.080;2023-03-02T09:06:55;1.70;;;0.70;;
13483;SDS011;6814;57.786;12.080;2023-03-02T09:09:22;2.63;;;0.77;;
13483;SDS011;6814;57.786;12.080;2023-03-02T09:11:48;1.80;;;0.40;;
13483;SDS011;6814;57.786;12.080;2023-03-02T09:14:15;0.83;;;0.73;;
13483;SDS011;6814;57.786;12.080;2023-03-02T09:16:43;1.30;;;0.63;;
13483;SDS011;6814;57.786;12.080;2023-03-02T09:19:13;1.23;;;0.63;;
13483;SDS011;6814;57.786;12.080;2023-03-02T09:21:40;2.43;;;0.70;;
13483;SDS011;6814;57.786;12.080;2023-03-02T09:24:06;0.70;;;0.70;;
13483;SDS011;6814;57.786;12.080;2023-03-02T09:26:33;1.43;;;0.40;;
13483;SDS011;6814;57.786;12.080;2023-03-02T09:29:00;0.50;;;0.50;;
13483;SDS011;6814;57.786;12.080;2023-03-02T09:31:26;0.60;;;0.60;;
13483;SDS011;6814;57.786;12.080;2023-03-02T09:33:54;0.70;;;0.70;;
13483;SDS011;6814;57.786;12.080;2023-03-02T09:36:22;1.30;;;0.53;;
13483;SDS011;6814;57.786;12.080;2023-03-02T09:38:48;0.50;;;0.50;;
13483;SDS011;6814;57.786;12.080;2023-03-02T09:44:04;0.47;;;0.47;;
13483;SDS011;6814;57.786;12.080;2023-03-02T09:46:35;1.17;;;0.60;;
13483;SDS011;6814;57.786;12.080;2023-03-02T09:49:12;1.97;;;0.50;;
13483;SDS011;6814;57.786;12.080;2023-03-02T09:51:42;0.57;;;0.50;;
13483;SDS011;6814;57.786;12.080;2023-03-02T09:54:11;1.33;;;0.70;;
13483;SDS011;6814;57.786;12.080;2023-03-02T09:56:40;0.40;;;0.40;;
13483;SDS011;6814;57.786;12.080;2023-03-02T09:59:10;0.70;;;0.40;;
13483;SDS011;6814;57.786;12.080;2023-03-02T10:01:39;0.60;;;0.60;;
13483;SDS011;6814;57.786;12.080;2023-03-02T10:06:50;1.67;;;0.67;;
13483;SDS011;6814;57.786;12.080;2023-03-02T10:09:17;1.93;;;0.90;;
13483;SDS011;6814;57.786;12.080;2023-03-02T10:11:48;5.90;;;1.23;;
13483;SDS011;6814;57.786;12.080;2023-03-02T10:14:17;3.37;;;1.47;;
13483;SDS011;6814;57.786;12.080;2023-03-02T10:16:46;5.37;;;2.20;;
13483;SDS011;6814;57.786;12.080;2023-03-02T10:19:15;4.93;;;2.30;;
13483;SDS011;6814;57.786;12.080;2023-03-02T10:21:44;8.63;;;3.03;;
13483;SDS011;6814;57.786;12.080;2023-03-02T10:24:15;8.00;;;3.27;;
13483;SDS011;6814;57.786;12.080;2023-03-02T10:26:47;4.23;;;2.17;;
13483;SDS011;6814;57.786;12.080;2023-03-02T10:29:24;4.13;;;2.20;;
13483;SDS011;6814;57.786;12.080;2023-03-02T10:31:55;7.50;;;2.07;;
13483;SDS011;6814;57.786;12.080;2023-03-02T10:34:24;6.03;;;1.90;;
13483;SDS011;6814;57.786;12.080;2023-03-02T10:36:52;4.73;;;1.60;;
13483;SDS011;6814;57.786;12.080;2023-03-02T10:39:20;2.63;;;1.00;;
13483;SDS011;6814;57.786;12.080;2023-03-02T10:41:47;1.47;;;1.03;;
13483;SDS011;6814;57.786;12.080;2023-03-02T10:44:16;2.17;;;0.77;;
13483;SDS011;6814;57.786;12.080;2023-03-02T10:46:45;3.30;;;1.00;;
13483;SDS011;6814;57.786;12.080;2023-03-02T10:49:28;4.50;;;1.03;;
13483;SDS011;6814;57.786;12.080;2023-03-02T10:51:55;3.87;;;1.20;;
13483;SDS011;6814;57.786;12.080;2023-03-02T10:54:23;5.33;;;1.10;;
13483;SDS011;6814;57.786;12.080;2023-03-02T10:56:52;10.30;;;2.97;;
13483;SDS011;6814;57.786;12.080;2023-03-02T10:59:28;9.27;;;2.60;;
13483;SDS011;6814;57.786;12.080;2023-03-02T11:01:59;9.13;;;3.03;;
13483;SDS011;6814;57.786;12.080;2023-03-02T11:04:26;9.07;;;2.80;;
13483;SDS011;6814;57.786;12.080;2023-03-02T11:06:53;6.00;;;1.93;;
13483;SDS011;6814;57.786;12.080;2023-03-02T11:09:19;6.83;;;2.13;;
13483;SDS011;6814;57.786;12.080;2023-03-02T11:11:49;4.13;;;1.60;;
13483;SDS011;6814;57.786;12.080;2023-03-02T11:14:18;3.33;;;1.70;;
13483;SDS011;6814;57.786;12.080;2023-03-02T11:16:47;5.03;;;1.20;;
13483;SDS011;6814;57.786;12.080;2023-03-02T11:19:14;4.93;;;1.67;;
13483;SDS011;6814;57.786;12.080;2023-03-02T11:21:42;2.70;;;1.40;;
13483;SDS011;6814;57.786;12.080;2023-03-02T11:24:09;3.20;;;1.33;;
13483;SDS011;6814;57.786;12.080;2023-03-02T11:26:38;4.00;;;1.33;;
13483;SDS011;6814;57.786;12.080;2023-03-02T11:29:11;1.70;;;1.20;;
13483;SDS011;6814;57.786;12.080;2023-03-02T11:31:40;2.40;;;1.00;;
13483;SDS011;6814;57.786;12.080;2023-03-02T11:34:11;3.73;;;1.23;;
13483;SDS011;6814;57.786;12.080;2023-03-02T11:36:42;2.50;;;1.30;;
13483;SDS011;6814;57.786;12.080;2023-03-02T11:39:11;2.97;;;1.70;;
13483;SDS011;6814;57.786;12.080;2023-03-02T11:41:39;3.63;;;1.30;;
13483;SDS011;6814;57.786;12.080;2023-03-02T11:44:08;6.67;;;1.63;;
13483;SDS011;6814;57.786;12.080;2023-03-02T11:46:39;3.07;;;1.77;;
13483;SDS011;6814;57.786;12.080;2023-03-02T11:49:10;2.80;;;1.40;;
13483;SDS011;6814;57.786;12.080;2023-03-02T11:51:40;4.00;;;1.67;;
13483;SDS011;6814;57.786;12.080;2023-03-02T11:54:10;2.80;;;1.53;;
13483;SDS011;6814;57.786;12.080;2023-03-02T11:56:41;3.13;;;1.67;;
13483;SDS011;6814;57.786;12.080;2023-03-02T11:59:10;7.67;;;2.10;;
13483;SDS011;6814;57.786;12.080;2023-03-02T12:01:40;3.27;;;1.13;;
13483;SDS011;6814;57.786;12.080;2023-03-02T12:04:08;5.17;;;1.30;;
13483;SDS011;6814;57.786;12.080;2023-03-02T12:06:35;3.20;;;1.20;;
13483;SDS011;6814;57.786;12.080;2023-03-02T12:09:06;2.03;;;0.70;;
13483;SDS011;6814;57.786;12.080;2023-03-02T12:11:37;4.07;;;1.20;;
13483;SDS011;6814;57.786;12.080;2023-03-02T12:14:22;1.23;;;0.57;;
13483;SDS011;6814;57.786;12.080;2023-03-02T12:16:51;1.57;;;0.40;;
13483;SDS011;6814;57.786;12.080;2023-03-02T12:19:37;2.53;;;0.60;;
13483;SDS011;6814;57.786;12.080;2023-03-02T12:22:04;1.43;;;0.50;;
13483;SDS011;6814;57.786;12.080;2023-03-02T12:24:34;0.97;;;0.60;;
13483;SDS011;6814;57.786;12.080;2023-03-02T12:27:02;0.33;;;0.33;;
13483;SDS011;6814;57.786;12.080;2023-03-02T12:29:37;0.50;;;0.50;;
13483;SDS011;6814;57.786;12.080;2023-03-02T12:32:10;1.43;;;0.60;;
13483;SDS011;6814;57.786;12.080;2023-03-02T12:34:37;1.07;;;0.43;;
13483;SDS011;6814;57.786;12.080;2023-03-02T12:37:06;1.50;;;0.50;;
13483;SDS011;6814;57.786;12.080;2023-03-02T12:39:39;0.50;;;0.30;;
13483;SDS011;6814;57.786;12.080;2023-03-02T12:42:30;1.03;;;0.50;;
13483;SDS011;6814;57.786;12.080;2023-03-02T12:45:01;0.20;;;0.20;;
13483;SDS011;6814;57.786;12.080;2023-03-02T12:47:29;1.00;;;0.40;;
13483;SDS011;6814;57.786;12.080;2023-03-02T12:49:57;1.17;;;0.20;;
13483;SDS011;6814;57.786;12.080;2023-03-02T12:52:26;1.57;;;0.30;;
13483;SDS011;6814;57.786;12.080;2023-03-02T12:55:00;0.30;;;0.17;;
13483;SDS011;6814;57.786;12.080;2023-03-02T12:57:27;0.20;;;0.20;;
13483;SDS011;6814;57.786;12.080;2023-03-02T12:59:55;0.40;;;0.23;;
13483;SDS011;6814;57.786;12.080;2023-03-02T13:02:23;1.43;;;0.37;;
13483;SDS011;6814;57.786;12.080;2023-03-02T13:04:55;0.70;;;0.40;;
13483;SDS011;6814;57.786;12.080;2023-03-02T13:07:23;0.30;;;0.20;;
13483;SDS011;6814;57.786;12.080;2023-03-02T13:09:50;1.03;;;0.33;;
13483;SDS011;6814;57.786;12.080;2023-03-02T13:12:18;0.83;;;0.20;;
13483;SDS011;6814;57.786;12.080;2023-03-02T13:14:45;0.20;;;0.10;;
13483;SDS011;6814;57.786;12.080;2023-03-02T13:17:19;0.13;;;0.13;;
13483;SDS011;6814;57.786;12.080;2023-03-02T13:19:46;1.83;;;0.20;;
13483;SDS011;6814;57.786;12.080;2023-03-02T13:22:15;0.47;;;0.20;;
13483;SDS011;6814;57.786;12.080;2023-03-02T13:24:47;1.40;;;0.50;;
13483;SDS011;6814;57.786;12.080;2023-03-02T13:27:15;2.17;;;0.50;;
13483;SDS011;6814;57.786;12.080;2023-03-02T13:29:42;0.50;;;0.40;;
13483;SDS011;6814;57.786;12.080;2023-03-02T13:32:19;1.17;;;0.50;;
13483;SDS011;6814;57.786;12.080;2023-03-02T13:34:47;0.73;;;0.60;;
13483;SDS011;6814;57.786;12.080;2023-03-02T13:37:20;1.80;;;0.67;;
13483;SDS011;6814;57.786;12.080;2023-03-02T13:39:53;2.17;;;0.70;;
13483;SDS011;6814;57.786;12.080;2023-03-02T13:42:25;1.90;;;0.73;;
13483;SDS011;6814;57.786;12.080;2023-03-02T13:44:52;2.20;;;0.90;;
13483;SDS011;6814;57.786;12.080;2023-03-02T13:47:20;2.87;;;0.90;;
13483;SDS011;6814;57.786;12.080;2023-03-02T13:49:47;1.90;;;0.70;;
13483;SDS011;6814;57.786;12.080;2023-03-02T13:52:15;1.60;;;0.90;;
13483;SDS011;6814;57.786;12.080;2023-03-02T13:54:44;1.70;;;0.67;;
13483;SDS011;6814;57.786;12.080;2023-03-02T13:57:13;3.33;;;1.33;;
13483;SDS011;6814;57.786;12.080;2023-03-02T13:59:41;5.70;;;1.60;;
13483;SDS011;6814;57.786;12.080;2023-03-02T14:02:10;2.03;;;0.80;;
13483;SDS011;6814;57.786;12.080;2023-03-02T14:04:45;2.77;;;1.00;;
13483;SDS011;6814;57.786;12.080;2023-03-02T14:07:14;2.73;;;0.80;;
13483;SDS011;6814;57.786;12.080;2023-03-02T14:09:41;3.73;;;0.90;;
13483;SDS011;6814;57.786;12.080;2023-03-02T14:12:09;4.23;;;1.17;;
13483;SDS011;6814;57.786;12.080;2023-03-02T14:14:38;1.37;;;0.60;;
13483;SDS011;6814;57.786;12.080;2023-03-02T14:17:08;0.77;;;0.30;;
13483;SDS011;6814;57.786;12.080;2023-03-02T14:19:36;1.23;;;0.40;;
13483;SDS011;6814;57.786;12.080;2023-03-02T14:22:02;2.80;;;0.60;;
13483;SDS011;6814;57.786;12.080;2023-03-02T14:24:29;0.60;;;0.40;;
13483;SDS011;6814;57.786;12.080;2023-03-02T14:26:55;0.93;;;0.27;;
13483;SDS011;6814;57.786;12.080;2023-03-02T14:29:24;1.60;;;0.33;;
13483;SDS011;6814;57.786;12.080;2023-03-02T14:31:51;0.93;;;0.30;;
13483;SDS011;6814;57.786;12.080;2023-03-02T14:34:18;1.57;;;0.30;;
13483;SDS011;6814;57.786;12.080;2023-03-02T14:36:45;0.70;;;0.20;;
13483;SDS011;6814;57.786;12.080;2023-03-02T14:39:16;0.60;;;0.20;;
13483;SDS011;6814;57.786;12.080;2023-03-02T14:41:43;0.27;;;0.13;;
13483;SDS011;6814;57.786;12.080;2023-03-02T14:44:10;0.87;;;0.50;;
13483;SDS011;6814;57.786;12.080;2023-03-02T14:46:37;0.50;;;0.27;;
13483;SDS011;6814;57.786;12.080;2023-03-02T14:49:04;0.10;;;0.10;;
13483;SDS011;6814;57.786;12.080;2023-03-02T14:51:31;1.50;;;0.20;;
13483;SDS011;6814;57.786;12.080;2023-03-02T14:53:59;0.73;;;0.33;;
13483;SDS011;6814;57.786;12.080;2023-03-02T14:56:26;0.13;;;0.10;;
13483;SDS011;6814;57.786;12.080;2023-03-02T14:58:53;0.20;;;0.20;;